Time;durP1;ratioP1;P1;durP2;ratioP2;P2;SDS_P1;SDS_P2;PMS_P1;PMS_P2;Temp;Humidity;BMP_temperature;BMP_pressure;BME280_temperature;BME280_humidity;BME280_pressure;Samples;Min_cycle;Max_cycle;Signal;HPM_P1;HPM_P2
2021/08/20 00:00:07;;;;;;;;;;;;;;;23.97;51.61;99739.77;461282;114;923132;-65
2021/08/20 00:01:17;;;;;;;;;;;;;;;23.96;51.66;99740.91;461001;111;922631;-66
2021/08/20 00:02:21;;;;;;;;;;;;;;;23.96;51.94;99734.52;459005;114;922674;-65
2021/08/20 00:03:25;;;;;;;;;;;;;;;23.93;52.31;99735.97;460318;114;923000;-67
2021/08/20 00:04:28;;;;;;;;;;;;;;;23.91;52.49;99732.70;459446;113;922709;-66
2021/08/20 00:05:31;;;;;;;;;;;;;;;23.89;52.67;99739.73;462036;111;922592;-65
2021/08/20 00:06:35;;;;;;;;;;;;;;;23.85;52.84;99745.13;460903;111;922677;-67
2021/08/20 00:07:39;;;;;;;;;;;;;;;23.83;52.97;99750.19;460424;112;923311;-68
2021/08/20 00:08:42;;;;;;;;;;;;;;;23.82;53.10;99747.75;461060;112;922613;-69
2021/08/20 00:09:45;;;;;;;;;;;;;;;23.79;53.17;99745.59;461166;111;922700;-67
2021/08/20 00:10:49;;;;;;;;;;;;;;;23.77;53.25;99745.91;461083;112;923149;-69
2021/08/20 00:11:53;;;;;;;;;;;;;;;23.74;53.39;99738.22;461066;114;921685;-69
2021/08/20 00:12:56;;;;;;;;;;;;;;;23.73;53.54;99732.97;461955;113;921910;-69
2021/08/20 00:13:59;;;;;;;;;;;;;;;23.71;53.82;99724.93;461371;111;921441;-69
2021/08/20 00:15:04;;;;;;;;;;;;;;;23.71;53.95;99733.28;461861;111;922459;-67
2021/08/20 00:16:07;;;;;;;;;;;;;;;23.71;54.07;99735.27;461820;111;922928;-68
2021/08/20 00:17:10;;;;;;;;;;;;;;;23.68;54.17;99734.77;462291;111;923217;-68
2021/08/20 00:18:13;;;;;;;;;;;;;;;23.67;54.23;99735.08;461468;111;923038;-69
2021/08/20 00:19:17;;;;;;;;;;;;;;;23.66;54.33;99744.56;463030;111;922558;-68
2021/08/20 00:20:20;;;;;;;;;;;;;;;23.66;54.36;99739.82;462643;113;922637;-67
2021/08/20 00:21:23;;;;;;;;;;;;;;;23.67;54.44;99746.20;461351;113;922862;-67
2021/08/20 00:22:27;;;;;;;;;;;;;;;23.68;54.44;99736.72;459301;111;923181;-67
2021/08/20 00:23:30;;;;;;;;;;;;;;;23.68;54.43;99733.94;459778;111;923212;-67
2021/08/20 00:24:34;;;;;;;;;;;;;;;23.66;54.44;99734.25;460183;113;922792;-68
2021/08/20 00:25:37;;;;;;;;;;;;;;;23.65;54.52;99729.03;461335;109;923264;-67
2021/08/20 00:26:42;;;;;;;;;;;;;;;23.64;54.58;99725.42;460843;111;922662;-67
2021/08/20 00:27:45;;;;;;;;;;;;;;;23.64;54.69;99725.42;460284;114;922628;-67
2021/08/20 00:28:48;;;;;;;;;;;;;;;23.64;54.75;99736.56;460795;113;921489;-67
2021/08/20 00:29:51;;;;;;;;;;;;;;;23.64;54.82;99728.20;460901;111;922676;-68
2021/08/20 00:30:55;;;;;;;;;;;;;;;23.64;54.87;99735.73;460641;111;922627;-67
2021/08/20 00:31:58;;;;;;;;;;;;;;;23.63;54.88;99732.13;461066;111;922636;-70
2021/08/20 00:33:02;;;;;;;;;;;;;;;23.61;54.94;99731.61;460976;113;922342;-70
2021/08/20 00:34:05;;;;;;;;;;;;;;;23.59;55.05;99730.31;461857;112;922681;-68
2021/08/20 00:35:09;;;;;;;;;;;;;;;23.55;55.13;99727.33;461070;111;922904;-67
2021/08/20 00:36:13;;;;;;;;;;;;;;;23.52;55.30;99727.98;461594;113;922728;-68
2021/08/20 00:37:16;;;;;;;;;;;;;;;23.51;55.45;99731.09;461758;112;922627;-68
2021/08/20 00:38:19;;;;;;;;;;;;;;;23.50;55.59;99729.44;454648;113;922714;-68
2021/08/20 00:39:23;;;;;;;;;;;;;;;23.51;55.62;99731.91;454595;111;924183;-68
2021/08/20 00:40:27;;;;;;;;;;;;;;;23.52;55.63;99733.55;463070;111;922442;-68
2021/08/20 00:41:30;;;;;;;;;;;;;;;23.53;55.72;99737.98;461705;112;922714;-68
2021/08/20 00:42:34;;;;;;;;;;;;;;;23.54;55.72;99736.81;459837;114;922688;-68
2021/08/20 00:43:41;;;;;;;;;;;;;;;23.53;55.74;99726.85;460566;111;922682;-67
2021/08/20 00:44:45;;;;;;;;;;;;;;;23.52;55.79;99711.30;461134;112;922646;-69
2021/08/20 00:45:52;;;;;;;;;;;;;;;23.51;55.90;99720.78;461620;112;923752;-69
2021/08/20 00:46:56;;;;;;;;;;;;;;;23.47;56.00;99713.40;459476;112;922713;-69
2021/08/20 00:48:00;;;;;;;;;;;;;;;23.43;56.16;99721.52;459534;111;922829;-68
2021/08/20 00:49:03;;;;;;;;;;;;;;;23.41;56.34;99729.38;459413;114;922678;-69
2021/08/20 00:50:08;;;;;;;;;;;;;;;23.40;56.51;99736.08;461951;112;922727;-67
2021/08/20 00:51:13;;;;;;;;;;;;;;;23.39;56.61;99726.09;461655;111;922700;-68
2021/08/20 00:52:16;;;;;;;;;;;;;;;23.40;56.69;99733.30;459680;111;922625;-68
2021/08/20 00:53:20;;;;;;;;;;;;;;;23.40;56.75;99727.73;461449;114;922695;-68
2021/08/20 00:54:23;;;;;;;;;;;;;;;23.38;56.86;99718.87;459856;114;922587;-68
2021/08/20 00:55:27;;;;;;;;;;;;;;;23.35;56.92;99716.75;456891;114;922671;-68
2021/08/20 00:56:30;;;;;;;;;;;;;;;23.33;57.02;99715.41;457178;111;923360;-68
2021/08/20 00:57:34;;;;;;;;;;;;;;;23.29;57.14;99718.03;458178;114;922680;-68
2021/08/20 00:58:37;;;;;;;;;;;;;;;23.27;57.29;99714.73;457851;113;923219;-68
2021/08/20 00:59:40;;;;;;;;;;;;;;;23.24;57.46;99720.95;457944;113;923171;-68
2021/08/20 01:00:44;;;;;;;;;;;;;;;23.22;57.63;99714.88;459507;113;921511;-69
2021/08/20 01:01:48;;;;;;;;;;;;;;;23.21;57.77;99721.60;459384;116;921630;-69
2021/08/20 01:02:53;;;;;;;;;;;;;;;23.20;57.93;99725.52;459275;114;921538;-69
2021/08/20 01:03:57;;;;;;;;;;;;;;;23.22;58.03;99724.04;459681;113;921569;-69
2021/08/20 01:05:00;;;;;;;;;;;;;;;23.24;58.06;99720.95;459297;113;921509;-68
2021/08/20 01:06:04;;;;;;;;;;;;;;;23.26;58.07;99725.06;456850;114;921415;-69
2021/08/20 01:07:07;;;;;;;;;;;;;;;23.28;58.08;99727.51;457960;114;921687;-68
2021/08/20 01:08:10;;;;;;;;;;;;;;;23.31;58.04;99723.28;455525;113;921522;-68
2021/08/20 01:09:13;;;;;;;;;;;;;;;23.31;58.03;99726.06;456560;113;921628;-69
2021/08/20 01:10:17;;;;;;;;;;;;;;;23.30;58.04;99719.67;460207;113;921430;-68
2021/08/20 01:11:21;;;;;;;;;;;;;;;23.31;58.04;99712.98;459801;113;921619;-69
2021/08/20 01:12:25;;;;;;;;;;;;;;;23.32;58.10;99722.14;459338;113;921579;-68
2021/08/20 01:13:33;;;;;;;;;;;;;;;23.34;58.10;99722.62;457340;113;921474;-68
2021/08/20 01:14:37;;;;;;;;;;;;;;;23.35;58.08;99721.49;457796;114;921668;-70
2021/08/20 01:15:40;;;;;;;;;;;;;;;23.36;58.06;99721.18;456491;113;923135;-68
2021/08/20 01:16:43;;;;;;;;;;;;;;;23.37;58.05;99728.39;448506;115;923655;-69
2021/08/20 01:17:47;;;;;;;;;;;;;;;23.38;58.04;99724.44;459230;113;922706;-68
2021/08/20 01:18:50;;;;;;;;;;;;;;;23.40;58.04;99736.08;458601;116;922783;-66
2021/08/20 01:19:53;;;;;;;;;;;;;;;23.40;58.02;99726.91;458021;114;922637;-66
2021/08/20 01:20:58;;;;;;;;;;;;;;;23.38;58.01;99720.83;450014;115;922744;-67
2021/08/20 01:22:05;;;;;;;;;;;;;;;23.36;58.06;99714.79;451598;115;921544;-68
2021/08/20 01:23:09;;;;;;;;;;;;;;;23.34;58.17;99711.50;459236;114;922652;-68
2021/08/20 01:24:13;;;;;;;;;;;;;;;23.34;58.31;99708.72;459098;114;922718;-70
2021/08/20 01:25:16;;;;;;;;;;;;;;;23.33;58.44;99707.89;459308;113;922644;-68
2021/08/20 01:26:20;;;;;;;;;;;;;;;23.33;58.45;99712.63;456427;113;923364;-68
2021/08/20 01:27:23;;;;;;;;;;;;;;;23.33;58.58;99713.45;455756;113;923236;-68
2021/08/20 01:28:27;;;;;;;;;;;;;;;23.31;58.61;99706.59;455158;114;922679;-68
2021/08/20 01:29:32;;;;;;;;;;;;;;;23.28;58.76;99708.03;458018;113;922869;-68
2021/08/20 01:30:36;;;;;;;;;;;;;;;23.25;58.85;99705.91;457017;113;922677;-66
2021/08/20 01:31:40;;;;;;;;;;;;;;;23.21;59.06;99707.70;450551;117;922774;-67
2021/08/20 01:32:43;;;;;;;;;;;;;;;23.16;59.13;99702.24;451198;116;922648;-65
2021/08/20 01:33:46;;;;;;;;;;;;;;;23.13;59.27;99705.67;456856;114;924435;-69
2021/08/20 01:34:50;;;;;;;;;;;;;;;23.09;59.42;99701.90;456974;113;923169;-66
2021/08/20 01:35:53;;;;;;;;;;;;;;;23.07;59.55;99698.61;459027;114;922698;-68
2021/08/20 01:36:57;;;;;;;;;;;;;;;23.06;59.61;99696.95;457558;114;923416;-65
2021/08/20 01:38:01;;;;;;;;;;;;;;;23.05;59.72;99690.58;457595;113;922664;-67
2021/08/20 01:39:04;;;;;;;;;;;;;;;23.06;59.75;99694.17;457725;113;922654;-65
2021/08/20 01:40:09;;;;;;;;;;;;;;;23.05;59.72;99689.75;457760;116;922686;-68
2021/08/20 01:41:12;;;;;;;;;;;;;;;23.04;59.73;99683.40;458776;114;921508;-68
2021/08/20 01:42:16;;;;;;;;;;;;;;;23.03;59.77;99690.09;458731;114;922708;-66
2021/08/20 01:43:21;;;;;;;;;;;;;;;23.02;59.76;99687.63;458182;113;922692;-68
2021/08/20 01:44:25;;;;;;;;;;;;;;;23.01;59.83;99695.14;459327;116;922610;-68
2021/08/20 01:45:28;;;;;;;;;;;;;;;23.01;59.91;99689.58;458655;114;923196;-67
2021/08/20 01:46:32;;;;;;;;;;;;;;;23.00;59.92;99689.89;457890;113;922672;-67
2021/08/20 01:47:36;;;;;;;;;;;;;;;23.02;59.96;99693.18;458916;113;923173;-68
2021/08/20 01:48:46;;;;;;;;;;;;;;;23.02;60.09;99684.84;456260;114;921491;-67
2021/08/20 01:49:50;;;;;;;;;;;;;;;23.01;60.24;99691.53;462680;111;924051;-68
2021/08/20 01:50:53;;;;;;;;;;;;;;;23.01;60.19;99691.53;462119;112;923267;-68
2021/08/20 01:51:56;;;;;;;;;;;;;;;22.99;60.22;99693.84;457821;113;923110;-68
2021/08/20 01:53:00;;;;;;;;;;;;;;;22.96;60.24;99686.94;456954;115;923924;-67
2021/08/20 01:54:03;;;;;;;;;;;;;;;22.94;60.35;99696.72;458757;115;922981;-68
2021/08/20 01:55:09;;;;;;;;;;;;;;;22.88;60.50;99684.91;459303;113;921694;-68
2021/08/20 01:56:14;;;;;;;;;;;;;;;22.85;60.97;99696.68;459746;112;921482;-68
2021/08/20 01:57:17;;;;;;;;;;;;;;;22.82;61.17;99688.98;459931;115;921417;-68
2021/08/20 01:58:21;;;;;;;;;;;;;;;22.81;61.33;99692.90;460590;112;921592;-69
2021/08/20 01:59:24;;;;;;;;;;;;;;;22.79;61.44;99690.43;460389;112;921625;-69
2021/08/20 02:00:27;;;;;;;;;;;;;;;22.81;61.58;99695.68;460331;113;921485;-69
2021/08/20 02:01:32;;;;;;;;;;;;;;;22.81;61.67;99693.73;460878;115;921602;-69
2021/08/20 02:02:37;;;;;;;;;;;;;;;22.82;61.80;99698.13;461477;113;921565;-69
2021/08/20 02:03:40;;;;;;;;;;;;;;;22.84;61.88;99697.81;460996;113;921515;-67
2021/08/20 02:04:43;;;;;;;;;;;;;;;22.85;61.87;99699.45;461487;115;921448;-69
2021/08/20 02:05:47;;;;;;;;;;;;;;;22.86;61.89;99695.55;462297;115;921414;-68
2021/08/20 02:06:50;;;;;;;;;;;;;;;22.84;61.90;99695.03;460358;112;922699;-69
2021/08/20 02:07:54;;;;;;;;;;;;;;;22.82;61.98;99691.77;460938;112;922657;-69
2021/08/20 02:08:58;;;;;;;;;;;;;;;22.79;62.04;99693.21;462439;115;923734;-69
2021/08/20 02:10:04;;;;;;;;;;;;;;;22.76;62.23;99690.25;458338;115;922711;-68
2021/08/20 02:11:07;;;;;;;;;;;;;;;22.73;62.27;99683.36;459223;112;923114;-67
2021/08/20 02:12:12;;;;;;;;;;;;;;;22.69;62.46;99690.66;460831;112;922953;-69
2021/08/20 02:13:17;;;;;;;;;;;;;;;22.67;62.57;99684.59;458796;115;922639;-68
2021/08/20 02:14:20;;;;;;;;;;;;;;;22.64;62.71;99690.80;458822;115;922612;-68
2021/08/20 02:15:24;;;;;;;;;;;;;;;22.63;62.85;99689.14;458472;112;922647;-69
2021/08/20 02:16:27;;;;;;;;;;;;;;;22.62;62.95;99698.61;457728;112;922674;-68
2021/08/20 02:17:31;;;;;;;;;;;;;;;22.61;63.04;99696.97;459514;115;923638;-69
2021/08/20 02:18:35;;;;;;;;;;;;;;;22.59;63.08;99693.70;458734;115;923112;-68
2021/08/20 02:19:39;;;;;;;;;;;;;;;22.58;63.14;99692.05;460125;112;923125;-68
2021/08/20 02:20:42;;;;;;;;;;;;;;;22.55;63.18;99698.23;459190;112;923130;-67
2021/08/20 02:21:47;;;;;;;;;;;;;;;22.53;63.20;99700.52;459903;114;923135;-68
2021/08/20 02:22:52;;;;;;;;;;;;;;;22.51;63.30;99694.44;459864;114;923158;-68
2021/08/20 02:23:56;;;;;;;;;;;;;;;22.51;63.40;99696.40;459997;112;922673;-68
2021/08/20 02:25:00;;;;;;;;;;;;;;;22.50;63.43;99701.13;459349;112;922618;-67
2021/08/20 02:26:03;;;;;;;;;;;;;;;22.49;63.40;99698.69;460890;114;922621;-67
2021/08/20 02:27:07;;;;;;;;;;;;;;;22.48;63.38;99705.38;460470;113;922642;-68
2021/08/20 02:28:10;;;;;;;;;;;;;;;22.46;63.27;99700.12;461962;112;922728;-64
2021/08/20 02:29:13;;;;;;;;;;;;;;;22.44;63.22;99697.66;459848;112;922637;-69
2021/08/20 02:30:18;;;;;;;;;;;;;;;22.43;63.13;99703.55;460155;115;922818;-68
2021/08/20 02:31:25;;;;;;;;;;;;;;;22.40;63.14;99696.65;456737;115;922593;-68
2021/08/20 02:32:29;;;;;;;;;;;;;;;22.40;63.15;99704.16;457792;114;922779;-68
2021/08/20 02:33:34;;;;;;;;;;;;;;;22.39;63.15;99705.28;459390;114;922638;-68
2021/08/20 02:34:39;;;;;;;;;;;;;;;22.40;63.16;99695.83;457696;115;922672;-68
2021/08/20 02:35:42;;;;;;;;;;;;;;;22.40;63.06;99698.60;459897;112;922599;-68
2021/08/20 02:36:45;;;;;;;;;;;;;;;22.39;63.04;99706.11;457985;114;923807;-68
2021/08/20 02:37:50;;;;;;;;;;;;;;;22.37;63.03;99694.52;459115;112;921563;-69
2021/08/20 02:38:53;;;;;;;;;;;;;;;22.36;63.05;99698.42;458900;113;922613;-68
2021/08/20 02:39:57;;;;;;;;;;;;;;;22.34;63.10;99694.30;459421;112;922681;-68
2021/08/20 02:41:00;;;;;;;;;;;;;;;22.32;63.17;99696.59;459949;115;923337;-68
2021/08/20 02:42:04;;;;;;;;;;;;;;;22.31;63.22;99697.72;460399;112;922542;-68
2021/08/20 02:43:07;;;;;;;;;;;;;;;22.31;63.31;99697.72;460287;115;922601;-67
2021/08/20 02:44:11;;;;;;;;;;;;;;;22.31;63.39;99704.09;460321;112;922678;-68
2021/08/20 02:45:14;;;;;;;;;;;;;;;22.34;63.44;99708.19;458646;112;922687;-67
2021/08/20 02:46:17;;;;;;;;;;;;;;;22.37;63.41;99716.73;459552;112;923087;-68
2021/08/20 02:47:21;;;;;;;;;;;;;;;22.40;63.41;99710.54;460810;113;921449;-67
2021/08/20 02:48:25;;;;;;;;;;;;;;;22.44;63.36;99719.05;454816;115;921532;-68
2021/08/20 02:49:29;;;;;;;;;;;;;;;22.46;63.23;99714.02;459289;113;921584;-68
2021/08/20 02:50:32;;;;;;;;;;;;;;;22.46;63.12;99717.62;460775;113;923119;-68
2021/08/20 02:51:35;;;;;;;;;;;;;;;22.47;63.08;99707.33;462109;114;922679;-67
2021/08/20 02:52:39;;;;;;;;;;;;;;;22.47;63.06;99710.11;458632;112;922696;-70
2021/08/20 02:53:42;;;;;;;;;;;;;;;22.46;63.09;99705.68;458749;113;922978;-68
2021/08/20 02:54:46;;;;;;;;;;;;;;;22.45;63.13;99710.41;458242;112;923116;-68
2021/08/20 02:55:49;;;;;;;;;;;;;;;22.47;63.19;99715.66;451691;115;921670;-68
2021/08/20 02:56:53;;;;;;;;;;;;;;;22.49;63.20;99715.36;451252;115;921442;-68
2021/08/20 02:57:57;;;;;;;;;;;;;;;22.50;63.18;99709.47;450482;115;922752;-67
2021/08/20 02:59:02;;;;;;;;;;;;;;;22.52;63.17;99714.72;449286;115;922593;-67
2021/08/20 03:00:06;;;;;;;;;;;;;;;22.54;63.16;99718.84;448058;116;922765;-68
2021/08/20 03:01:10;;;;;;;;;;;;;;;22.56;63.09;99718.50;437799;119;921571;-69
2021/08/20 03:02:14;;;;;;;;;;;;;;;22.55;63.06;99714.89;433940;120;921479;-68
2021/08/20 03:03:17;;;;;;;;;;;;;;;22.55;63.11;99717.67;439525;118;923205;-66
2021/08/20 03:04:21;;;;;;;;;;;;;;;22.55;63.09;99716.88;441249;118;923135;-67
2021/08/20 03:05:24;;;;;;;;;;;;;;;22.55;63.13;99716.88;439459;118;923092;-68
2021/08/20 03:06:29;;;;;;;;;;;;;;;22.53;63.13;99722.74;439346;118;922745;-68
2021/08/20 03:07:33;;;;;;;;;;;;;;;22.52;63.17;99720.27;431813;121;922702;-68
2021/08/20 03:08:37;;;;;;;;;;;;;;;22.51;63.24;99713.06;438879;119;921610;-68
2021/08/20 03:09:41;;;;;;;;;;;;;;;22.50;63.35;99709.47;439475;119;921684;-69
2021/08/20 03:10:45;;;;;;;;;;;;;;;22.50;63.38;99726.13;437714;119;922593;-66
2021/08/20 03:11:48;;;;;;;;;;;;;;;22.50;63.44;99717.80;436295;118;922954;-66
2021/08/20 03:12:51;;;;;;;;;;;;;;;22.49;63.43;99721.73;431979;121;922721;-66
2021/08/20 03:13:56;;;;;;;;;;;;;;;22.49;63.49;99720.91;438990;119;922969;-69
2021/08/20 03:15:01;;;;;;;;;;;;;;;22.47;63.49;99721.22;436328;119;923604;-70
2021/08/20 03:16:06;;;;;;;;;;;;;;;22.48;63.54;99719.27;437511;119;922648;-68
2021/08/20 03:17:09;;;;;;;;;;;;;;;22.45;63.59;99718.75;436692;121;922783;-68
2021/08/20 03:18:12;;;;;;;;;;;;;;;22.44;63.66;99716.27;435181;119;923247;-68
2021/08/20 03:19:16;;;;;;;;;;;;;;;22.44;63.76;99722.66;435856;119;921643;-68
2021/08/20 03:20:19;;;;;;;;;;;;;;;22.45;63.92;99721.52;435507;119;922706;-67
2021/08/20 03:21:22;;;;;;;;;;;;;;;22.47;63.87;99726.78;436503;121;923143;-68
2021/08/20 03:22:28;;;;;;;;;;;;;;;22.49;63.83;99730.07;435514;120;922669;-68
2021/08/20 03:23:31;;;;;;;;;;;;;;;22.50;63.82;99722.53;436198;119;922523;-69
2021/08/20 03:24:34;;;;;;;;;;;;;;;22.51;63.84;99724.18;439402;118;922788;-68
2021/08/20 03:25:37;;;;;;;;;;;;;;;22.51;63.89;99729.73;439975;118;922694;-68
2021/08/20 03:26:42;;;;;;;;;;;;;;;22.52;63.90;99729.43;439037;119;921662;-68
2021/08/20 03:27:46;;;;;;;;;;;;;;;22.52;64.00;99732.20;438833;118;923213;-69
2021/08/20 03:28:51;;;;;;;;;;;;;;;22.54;64.09;99732.73;437508;118;922518;-66
2021/08/20 03:29:55;;;;;;;;;;;;;;;22.57;64.15;99734.04;438579;118;921783;-68
2021/08/20 03:31:00;;;;;;;;;;;;;;;22.59;64.16;99731.78;439322;118;922704;-68
2021/08/20 03:32:06;;;;;;;;;;;;;;;22.60;64.12;99742.59;440165;118;922668;-68
2021/08/20 03:33:09;;;;;;;;;;;;;;;22.61;64.14;99741.42;440973;118;922613;-69
2021/08/20 03:34:14;;;;;;;;;;;;;;;22.63;64.20;99747.50;440755;119;922548;-66
2021/08/20 03:35:18;;;;;;;;;;;;;;;22.65;64.21;99748.02;445309;115;922676;-68
2021/08/20 03:36:23;;;;;;;;;;;;;;;22.69;64.16;99742.64;449803;116;922749;-68
2021/08/20 03:37:28;;;;;;;;;;;;;;;22.72;64.06;99739.25;446991;115;922714;-68
2021/08/20 03:38:33;;;;;;;;;;;;;;;22.76;64.01;99741.11;446272;118;923445;-70
2021/08/20 03:39:37;;;;;;;;;;;;;;;22.80;63.91;99744.06;449637;115;921506;-68
2021/08/20 03:40:41;;;;;;;;;;;;;;;22.82;63.83;99742.59;449041;115;921512;-68
2021/08/20 03:41:44;;;;;;;;;;;;;;;22.86;63.71;99749.19;448539;118;921479;-69
2021/08/20 03:42:49;;;;;;;;;;;;;;;22.90;63.60;99752.14;448351;116;921514;-69
2021/08/20 03:44:01;;;;;;;;;;;;;;;22.93;63.54;99753.48;446540;115;921638;-69
2021/08/20 03:45:07;;;;;;;;;;;;;;;22.96;63.41;99769.52;448726;116;921459;-68
2021/08/20 03:46:10;;;;;;;;;;;;;;;22.97;63.26;99777.55;448479;118;921603;-68
2021/08/20 03:47:15;;;;;;;;;;;;;;;23.01;63.17;99777.73;449451;115;921432;-69
2021/08/20 03:48:19;;;;;;;;;;;;;;;23.02;63.08;99776.59;448852;115;921558;-69
2021/08/20 03:49:22;;;;;;;;;;;;;;;23.04;63.02;99774.33;448556;115;921493;-69
2021/08/20 03:50:26;;;;;;;;;;;;;;;23.07;62.97;99784.81;449940;116;921460;-68
2021/08/20 03:51:29;;;;;;;;;;;;;;;23.09;62.86;99786.14;449377;115;921576;-68
2021/08/20 03:52:32;;;;;;;;;;;;;;;23.11;62.82;99783.02;448864;113;921543;-68
2021/08/20 03:53:36;;;;;;;;;;;;;;;23.12;62.82;99788.28;448966;115;921590;-68
2021/08/20 03:54:40;;;;;;;;;;;;;;;23.14;62.88;99787.97;445283;117;921608;-69
2021/08/20 03:55:43;;;;;;;;;;;;;;;23.15;62.93;99793.23;446989;113;922731;-69
2021/08/20 03:56:55;;;;;;;;;;;;;;;23.16;63.00;99782.89;449363;114;922696;-69
2021/08/20 03:57:59;;;;;;;;;;;;;;;23.16;63.02;99785.67;457295;113;921526;-66
2021/08/20 03:59:03;;;;;;;;;;;;;;;23.16;63.04;99778.16;461586;114;922705;-67
2021/08/20 04:00:07;;;;;;;;;;;;;;;23.17;63.09;99776.20;461960;112;922560;-67
2021/08/20 04:01:12;;;;;;;;;;;;;;;23.17;63.14;99782.59;458248;113;923219;-68
2021/08/20 04:02:17;;;;;;;;;;;;;;;23.17;63.23;99785.37;460824;113;923096;-67
2021/08/20 04:03:22;;;;;;;;;;;;;;;23.19;63.23;99780.32;459223;113;923143;-68
2021/08/20 04:04:25;;;;;;;;;;;;;;;23.21;63.27;99777.23;457002;113;923109;-68
2021/08/20 04:05:48;;;;;;;;;;;;;;;23.21;63.27;99783.58;456426;113;923218;-70
2021/08/20 04:06:56;;;;;;;;;;;;;;;23.24;63.32;99782.14;460171;114;922683;-70
2021/08/20 04:08:02;;;;;;;;;;;;;;;23.25;63.35;99778.23;460227;111;923324;-69
2021/08/20 04:09:24;;;;;;;;;;;;;;;23.25;63.37;99778.23;460542;111;922620;-69
2021/08/20 04:10:29;;;;;;;;;;;;;;;23.25;63.48;99773.48;460675;111;922635;-67
2021/08/20 04:11:34;;;;;;;;;;;;;;;23.26;63.54;99774.31;461074;114;922681;-66
2021/08/20 04:12:51;;;;;;;;;;;;;;;23.28;63.60;99785.92;459979;111;922685;-68
2021/08/20 04:14:02;;;;;;;;;;;;;;;23.30;63.60;99780.87;455372;111;921514;-68
2021/08/20 04:15:05;;;;;;;;;;;;;;;23.33;63.63;99785.78;462093;114;923051;-68
2021/08/20 04:16:09;;;;;;;;;;;;;;;23.34;63.61;99784.65;461738;112;922694;-68
2021/08/20 04:17:12;;;;;;;;;;;;;;;23.35;63.64;99789.08;454057;113;922753;-68
2021/08/20 04:18:17;;;;;;;;;;;;;;;23.36;63.65;99796.30;455165;113;922693;-67
2021/08/20 04:19:20;;;;;;;;;;;;;;;23.38;63.68;99793.99;463461;114;922698;-67
2021/08/20 04:20:24;;;;;;;;;;;;;;;23.41;63.68;99790.59;463959;114;923035;-68
2021/08/20 04:21:27;;;;;;;;;;;;;;;23.44;63.72;99792.72;460619;114;922785;-68
2021/08/20 04:22:32;;;;;;;;;;;;;;;23.47;63.68;99794.91;462143;111;921847;-68
2021/08/20 04:23:35;;;;;;;;;;;;;;;23.50;63.65;99785.91;459178;114;921667;-68
2021/08/20 04:24:43;;;;;;;;;;;;;;;23.53;63.66;99788.08;459765;113;921509;-68
2021/08/20 04:26:06;;;;;;;;;;;;;;;23.55;63.61;99782.98;454429;113;921656;-68
2021/08/20 04:27:18;;;;;;;;;;;;;;;23.59;63.60;99785.97;460506;112;921605;-68
2021/08/20 04:28:29;;;;;;;;;;;;;;;23.61;63.50;99778.11;448405;118;921735;-68
2021/08/20 04:29:37;;;;;;;;;;;;;;;23.62;63.53;99780.58;457200;111;921645;-68
2021/08/20 04:30:48;;;;;;;;;;;;;;;23.63;63.50;99776.66;441699;117;921786;-67
2021/08/20 04:31:59;;;;;;;;;;;;;;;23.64;63.49;99783.88;459969;114;921531;-67
2021/08/20 04:33:21;;;;;;;;;;;;;;;23.66;63.46;99778.78;460804;113;921591;-68
2021/08/20 04:34:42;;;;;;;;;;;;;;;23.68;63.50;99770.95;460725;111;921460;-67
2021/08/20 04:35:53;;;;;;;;;;;;;;;23.71;63.47;99779.81;461304;113;921513;-67
2021/08/20 04:37:04;;;;;;;;;;;;;;;23.76;63.41;99774.09;460435;112;922408;-68
2021/08/20 04:38:18;;;;;;;;;;;;;;;23.80;63.27;99777.87;461252;111;921627;-68
2021/08/20 04:39:29;;;;;;;;;;;;;;;23.83;63.20;99782.78;464469;112;921482;-68
2021/08/20 04:40:36;;;;;;;;;;;;;;;23.86;63.13;99782.97;460130;113;923107;-68
2021/08/20 04:41:57;;;;;;;;;;;;;;;23.91;63.05;99782.00;461128;112;922724;-68
2021/08/20 04:43:18;;;;;;;;;;;;;;;23.95;62.97;99785.77;441617;117;922753;-68
2021/08/20 04:44:23;;;;;;;;;;;;;;;23.98;62.88;99780.37;440806;120;921746;-68
2021/08/20 04:45:46;;;;;;;;;;;;;;;24.00;62.85;99772.52;445469;112;922715;-67
2021/08/20 04:47:09;;;;;;;;;;;;;;;24.03;62.77;99783.03;459452;111;922666;-66
2021/08/20 04:48:14;;;;;;;;;;;;;;;24.04;62.70;99787.44;452336;114;922768;-68
2021/08/20 04:49:28;;;;;;;;;;;;;;;24.05;62.70;99777.94;459959;113;923752;-67
2021/08/20 04:50:44;;;;;;;;;;;;;;;24.07;62.67;99788.77;460530;111;922629;-65
2021/08/20 04:52:06;;;;;;;;;;;;;;;24.08;62.64;99788.45;461140;111;922705;-64
2021/08/20 04:53:30;;;;;;;;;;;;;;;24.10;62.64;99788.11;460838;112;922650;-67
2021/08/20 04:54:45;;;;;;;;;;;;;;;24.11;62.56;99782.22;460494;111;922654;-67
2021/08/20 04:55:47;;;;;;;;;;;;;;;24.12;62.60;99791.40;461199;111;922654;-69
2021/08/20 04:56:51;;;;;;;;;;;;;;;24.14;62.58;99782.73;459873;115;924052;-66
2021/08/20 04:57:54;;;;;;;;;;;;;;;24.15;62.60;99784.38;459173;115;922719;-69
2021/08/20 04:58:57;;;;;;;;;;;;;;;24.15;62.55;99787.95;459954;112;923661;-67
2021/08/20 05:00:00;;;;;;;;;;;;;;;24.16;62.53;99794.34;460326;112;922720;-67
2021/08/20 05:01:05;;;;;;;;;;;;;;;24.17;62.53;99799.60;460380;113;922680;-68
2021/08/20 05:02:30;;;;;;;;;;;;;;;24.15;62.45;99793.52;461173;112;922620;-76
2021/08/20 05:03:56;;;;;;;;;;;;;;;24.15;62.40;99798.30;460704;112;921651;-76
2021/08/20 05:04:59;;;;;;;;;;;;;;;24.15;62.42;99798.30;461580;112;922759;-75
2021/08/20 05:06:03;;;;;;;;;;;;;;;24.15;62.39;99807.45;459824;115;923108;-77
2021/08/20 05:07:06;;;;;;;;;;;;;;;24.17;62.38;99807.13;459589;112;923103;-76
2021/08/20 05:08:10;;;;;;;;;;;;;;;24.17;62.42;99807.13;457217;112;923144;-75
2021/08/20 05:09:13;;;;;;;;;;;;;;;24.19;62.42;99807.67;459001;115;922592;-76
2021/08/20 05:10:17;;;;;;;;;;;;;;;24.20;62.40;99810.14;458552;115;922670;-76
2021/08/20 05:11:20;;;;;;;;;;;;;;;24.21;62.35;99813.73;458910;114;922710;-73
2021/08/20 05:12:24;;;;;;;;;;;;;;;24.20;62.29;99812.93;450732;114;922727;-68
2021/08/20 05:13:28;;;;;;;;;;;;;;;24.19;62.30;99816.86;459908;114;922857;-68
2021/08/20 05:14:32;;;;;;;;;;;;;;;24.21;62.39;99822.08;461862;114;923229;-67
2021/08/20 05:15:35;;;;;;;;;;;;;;;24.20;62.33;99821.29;459994;113;922727;-68
2021/08/20 05:16:38;;;;;;;;;;;;;;;24.20;62.34;99821.29;459649;112;922733;-68
2021/08/20 05:17:41;;;;;;;;;;;;;;;24.19;62.26;99813.25;460429;115;923120;-72
2021/08/20 05:18:44;;;;;;;;;;;;;;;24.21;62.26;99820.13;458714;115;922742;-72
2021/08/20 05:19:47;;;;;;;;;;;;;;;24.21;62.29;99816.52;460285;113;923195;-74
2021/08/20 05:20:51;;;;;;;;;;;;;;;24.21;62.33;99817.33;460517;112;922685;-73
2021/08/20 05:21:55;;;;;;;;;;;;;;;24.23;62.24;99820.63;461004;115;921383;-75
2021/08/20 05:22:58;;;;;;;;;;;;;;;24.25;62.22;99811.95;461544;112;921767;-75
2021/08/20 05:24:01;;;;;;;;;;;;;;;24.26;62.15;99816.39;460332;112;921496;-74
2021/08/20 05:25:04;;;;;;;;;;;;;;;24.27;62.08;99816.04;460446;112;921729;-75
2021/08/20 05:26:09;;;;;;;;;;;;;;;24.29;61.96;99812.94;463601;114;921516;-68
2021/08/20 05:27:12;;;;;;;;;;;;;;;24.28;61.92;99814.91;457473;115;921424;-68
2021/08/20 05:28:16;;;;;;;;;;;;;;;24.29;61.93;99818.52;457511;115;921406;-69
2021/08/20 05:29:19;;;;;;;;;;;;;;;24.30;61.80;99817.37;458432;112;921650;-68
2021/08/20 05:30:23;;;;;;;;;;;;;;;24.30;61.72;99826.55;459458;115;921482;-68
2021/08/20 05:31:26;;;;;;;;;;;;;;;24.30;61.73;99831.30;458386;113;921945;-68
2021/08/20 05:32:29;;;;;;;;;;;;;;;24.29;61.70;99830.48;459181;112;921507;-68
2021/08/20 05:33:33;;;;;;;;;;;;;;;24.30;61.62;99831.30;458943;112;921460;-69